Ridge Spring, SC (29129)

5:47 PM EDT on July 25, 2017 (GMT -0400)
Hwy 1 | | Change Station

Elev 600 ft 33.84 °N, 81.61 °W | Updated 45 seconds ago

Partly Cloudy
Partly Cloudy
94.8 °F
Feels Like 108 °F
N
0.0
Wind Variable Wind from NNE

Today
High -- | Low -- °F
--% Chance of Precip.
Yesterday
High -- | Low -- °F
Precip. -- in
Pressure 30.07 in
Visibility 10.0 miles
Clouds Scattered Clouds 5000 ft
Heat Index 108 °F
Dew Point 76 °F
Humidity 55%
Rainfall 0.00 in
Snow Depth Not available.
6:33 AM 8:32 PM
Waxing Crescent, 8% visible
METAR KAIK 252135Z AUTO 31003KT 10SM SCT050 32/23 A3007 RMK AO2 LTG DSNT SE
Pressure 30.07 in
Visibility 10.0 miles
Clouds Scattered Clouds 5000 ft
Heat Index 108 °F
Dew Point 76 °F
Humidity 55%
Rainfall 0.00 in
Snow Depth Not available.
6:33 AM 8:32 PM
Waxing Crescent, 8% visible
METAR KAIK 252135Z AUTO 31003KT 10SM SCT050 32/23 A3007 RMK AO2 LTG DSNT SE

Get Severe Weather Alerts

Thanks for signing up!

Be on the lookout for a verification email in your inbox.

You'll start receiving the daily forecast at 6 AM.

×

10-Day Weather Forecast

Almanac

Astronomy

Jul. 25, 2017 Rise Set
Actual Time
Civil Twilight
Nautical Twilight
Astronomical Twilight
Moon
Length of Visible Light
Length of Day
Tomorrow will be .
, % of the Moon is Illuminated

Today's Extremes

State Highs State Lows

Community

WunderPhotos

Category 6

Welcome to Category 6. This is the collective home for Weather Underground's featured writeups by Dr. Jeff Masters (right), Bob Henson (left), Chris Burt, and other regular contributors.

Nearby

Air Quality

  Air Quality AQ Index Pollutant
Not available.

Snow Depth

Station Depth Elevation

Earthquake Activity

City Distance Mag. Time & Date
Minimum magnitude displayed is 2.5.

Coastal Water Temperatures

Place Temperature

Stations

Nearby Weather Stations

Station Location Temp. Windchill Dew Point Humidity Wind Precip. Elev Updated Type
                   

Watches & Warnings

There are currently no watches in effect.